sensor_id;sensor_type;location;lat;lon;timestamp;P1;durP1;ratioP1;P2;durP2;ratioP2
49860;SDS011;35761;48.826;9.238;2023-02-01T00:01:36;5.60;;;3.15;;
49860;SDS011;35761;48.826;9.238;2023-02-01T00:04:06;4.55;;;2.92;;
49860;SDS011;35761;48.826;9.238;2023-02-01T00:06:34;8.57;;;3.33;;
49860;SDS011;35761;48.826;9.238;2023-02-01T00:09:03;4.50;;;2.72;;
49860;SDS011;35761;48.826;9.238;2023-02-01T00:11:32;6.75;;;3.35;;
49860;SDS011;35761;48.826;9.238;2023-02-01T00:14:01;5.53;;;3.10;;
49860;SDS011;35761;48.826;9.238;2023-02-01T00:16:30;7.50;;;3.45;;
49860;SDS011;35761;48.826;9.238;2023-02-01T00:19:00;6.32;;;2.97;;
49860;SDS011;35761;48.826;9.238;2023-02-01T00:21:31;5.43;;;2.85;;
49860;SDS011;35761;48.826;9.238;2023-02-01T00:24:00;6.72;;;2.60;;
49860;SDS011;35761;48.826;9.238;2023-02-01T00:26:30;4.63;;;2.80;;
49860;SDS011;35761;48.826;9.238;2023-02-01T00:29:00;5.03;;;3.00;;
49860;SDS011;35761;48.826;9.238;2023-02-01T00:31:30;4.30;;;2.60;;
49860;SDS011;35761;48.826;9.238;2023-02-01T00:33:59;4.60;;;2.53;;
49860;SDS011;35761;48.826;9.238;2023-02-01T00:36:28;4.75;;;2.33;;
49860;SDS011;35761;48.826;9.238;2023-02-01T00:38:58;3.78;;;2.13;;
49860;SDS011;35761;48.826;9.238;2023-02-01T00:41:27;4.65;;;2.80;;
49860;SDS011;35761;48.826;9.238;2023-02-01T00:43:56;3.72;;;2.30;;
49860;SDS011;35761;48.826;9.238;2023-02-01T00:46:25;4.70;;;2.38;;
49860;SDS011;35761;48.826;9.238;2023-02-01T00:48:53;5.22;;;2.40;;
49860;SDS011;35761;48.826;9.238;2023-02-01T00:51:23;3.90;;;2.30;;
49860;SDS011;35761;48.826;9.238;2023-02-01T00:53:54;3.47;;;2.08;;
49860;SDS011;35761;48.826;9.238;2023-02-01T00:56:25;4.82;;;2.10;;
49860;SDS011;35761;48.826;9.238;2023-02-01T00:58:54;6.80;;;1.83;;
49860;SDS011;35761;48.826;9.238;2023-02-01T01:01:24;5.25;;;2.05;;
49860;SDS011;35761;48.826;9.238;2023-02-01T01:03:55;4.65;;;2.00;;
49860;SDS011;35761;48.826;9.238;2023-02-01T01:06:25;4.65;;;1.75;;
49860;SDS011;35761;48.826;9.238;2023-02-01T01:08:55;2.85;;;1.60;;
49860;SDS011;35761;48.826;9.238;2023-02-01T01:11:26;2.40;;;1.60;;
49860;SDS011;35761;48.826;9.238;2023-02-01T01:13:56;3.72;;;1.90;;
49860;SDS011;35761;48.826;9.238;2023-02-01T01:16:27;6.60;;;2.25;;
49860;SDS011;35761;48.826;9.238;2023-02-01T01:18:57;3.60;;;2.08;;
49860;SDS011;35761;48.826;9.238;2023-02-01T01:21:26;2.75;;;1.70;;
49860;SDS011;35761;48.826;9.238;2023-02-01T01:23:55;3.70;;;2.15;;
49860;SDS011;35761;48.826;9.238;2023-02-01T01:26:26;3.22;;;2.10;;
49860;SDS011;35761;48.826;9.238;2023-02-01T01:28:56;3.72;;;2.10;;
49860;SDS011;35761;48.826;9.238;2023-02-01T01:31:26;4.78;;;2.22;;
49860;SDS011;35761;48.826;9.238;2023-02-01T01:33:55;7.10;;;2.35;;
49860;SDS011;35761;48.826;9.238;2023-02-01T01:36:26;3.60;;;2.20;;
49860;SDS011;35761;48.826;9.238;2023-02-01T01:38:55;4.22;;;2.03;;
49860;SDS011;35761;48.826;9.238;2023-02-01T01:41:26;3.67;;;2.17;;
49860;SDS011;35761;48.826;9.238;2023-02-01T01:44:06;4.75;;;2.03;;
49860;SDS011;35761;48.826;9.238;2023-02-01T01:46:49;3.50;;;1.88;;
49860;SDS011;35761;48.826;9.238;2023-02-01T01:49:19;3.78;;;2.15;;
49860;SDS011;35761;48.826;9.238;2023-02-01T01:51:51;3.95;;;1.90;;
49860;SDS011;35761;48.826;9.238;2023-02-01T01:54:21;3.40;;;2.03;;
49860;SDS011;35761;48.826;9.238;2023-02-01T01:56:53;4.25;;;1.98;;
49860;SDS011;35761;48.826;9.238;2023-02-01T01:59:24;3.33;;;1.85;;
49860;SDS011;35761;48.826;9.238;2023-02-01T02:01:53;3.63;;;1.90;;
49860;SDS011;35761;48.826;9.238;2023-02-01T02:04:22;3.10;;;2.00;;
49860;SDS011;35761;48.826;9.238;2023-02-01T02:06:51;2.55;;;1.50;;
49860;SDS011;35761;48.826;9.238;2023-02-01T02:09:22;3.45;;;1.90;;
49860;SDS011;35761;48.826;9.238;2023-02-01T02:11:52;3.10;;;1.92;;
49860;SDS011;35761;48.826;9.238;2023-02-01T02:14:21;6.45;;;1.80;;
49860;SDS011;35761;48.826;9.238;2023-02-01T02:22:59;3.00;;;1.67;;
49860;SDS011;35761;48.826;9.238;2023-02-01T02:25:51;2.45;;;1.70;;
49860;SDS011;35761;48.826;9.238;2023-02-01T02:34:17;3.95;;;2.05;;
49860;SDS011;35761;48.826;9.238;2023-02-01T02:36:50;3.42;;;1.88;;
49860;SDS011;35761;48.826;9.238;2023-02-01T02:39:26;2.92;;;1.85;;
49860;SDS011;35761;48.826;9.238;2023-02-01T02:42:03;4.18;;;2.00;;
49860;SDS011;35761;48.826;9.238;2023-02-01T02:44:57;2.80;;;1.90;;
49860;SDS011;35761;48.826;9.238;2023-02-01T02:47:50;4.40;;;2.08;;
49860;SDS011;35761;48.826;9.238;2023-02-01T02:50:25;3.90;;;2.08;;
49860;SDS011;35761;48.826;9.238;2023-02-01T02:53:16;2.85;;;1.80;;
49860;SDS011;35761;48.826;9.238;2023-02-01T02:56:05;2.92;;;1.92;;
49860;SDS011;35761;48.826;9.238;2023-02-01T02:58:52;3.95;;;1.92;;
49860;SDS011;35761;48.826;9.238;2023-02-01T03:01:39;3.38;;;1.92;;
49860;SDS011;35761;48.826;9.238;2023-02-01T03:04:26;3.38;;;2.00;;
49860;SDS011;35761;48.826;9.238;2023-02-01T03:06:56;3.17;;;1.90;;
49860;SDS011;35761;48.826;9.238;2023-02-01T03:09:26;4.90;;;1.98;;
49860;SDS011;35761;48.826;9.238;2023-02-01T03:11:58;2.80;;;1.98;;
49860;SDS011;35761;48.826;9.238;2023-02-01T03:14:49;4.97;;;2.15;;
49860;SDS011;35761;48.826;9.238;2023-02-01T03:17:21;3.55;;;2.13;;
49860;SDS011;35761;48.826;9.238;2023-02-01T03:19:52;3.70;;;1.80;;
49860;SDS011;35761;48.826;9.238;2023-02-01T03:22:24;3.58;;;1.80;;
49860;SDS011;35761;48.826;9.238;2023-02-01T03:24:59;3.45;;;2.10;;
49860;SDS011;35761;48.826;9.238;2023-02-01T03:27:30;4.10;;;2.30;;
49860;SDS011;35761;48.826;9.238;2023-02-01T03:30:02;3.50;;;2.00;;
49860;SDS011;35761;48.826;9.238;2023-02-01T03:32:34;5.75;;;2.00;;
49860;SDS011;35761;48.826;9.238;2023-02-01T03:35:17;3.60;;;2.13;;
49860;SDS011;35761;48.826;9.238;2023-02-01T03:37:47;3.60;;;2.15;;
49860;SDS011;35761;48.826;9.238;2023-02-01T03:40:17;3.63;;;2.20;;
49860;SDS011;35761;48.826;9.238;2023-02-01T03:42:48;2.88;;;1.92;;
49860;SDS011;35761;48.826;9.238;2023-02-01T03:45:19;4.35;;;2.47;;
49860;SDS011;35761;48.826;9.238;2023-02-01T03:47:52;4.22;;;2.40;;
49860;SDS011;35761;48.826;9.238;2023-02-01T03:50:24;3.92;;;2.30;;
49860;SDS011;35761;48.826;9.238;2023-02-01T03:52:56;3.58;;;2.20;;
49860;SDS011;35761;48.826;9.238;2023-02-01T03:55:27;4.00;;;2.22;;
49860;SDS011;35761;48.826;9.238;2023-02-01T03:57:58;3.95;;;2.20;;
49860;SDS011;35761;48.826;9.238;2023-02-01T04:00:30;3.67;;;2.15;;
49860;SDS011;35761;48.826;9.238;2023-02-01T04:02:59;4.10;;;2.10;;
49860;SDS011;35761;48.826;9.238;2023-02-01T04:05:28;4.13;;;2.40;;
49860;SDS011;35761;48.826;9.238;2023-02-01T04:08:03;4.25;;;2.60;;
49860;SDS011;35761;48.826;9.238;2023-02-01T04:10:32;5.72;;;2.10;;
49860;SDS011;35761;48.826;9.238;2023-02-01T04:13:01;3.20;;;2.20;;
49860;SDS011;35761;48.826;9.238;2023-02-01T04:15:30;3.53;;;2.33;;
49860;SDS011;35761;48.826;9.238;2023-02-01T04:18:00;3.85;;;2.35;;
49860;SDS011;35761;48.826;9.238;2023-02-01T04:20:29;3.17;;;2.10;;
49860;SDS011;35761;48.826;9.238;2023-02-01T04:22:58;3.60;;;2.05;;
49860;SDS011;35761;48.826;9.238;2023-02-01T04:25:30;3.75;;;2.15;;
49860;SDS011;35761;48.826;9.238;2023-02-01T04:27:58;3.97;;;2.22;;
49860;SDS011;35761;48.826;9.238;2023-02-01T04:30:27;3.83;;;2.45;;
49860;SDS011;35761;48.826;9.238;2023-02-01T04:32:56;4.43;;;2.13;;
49860;SDS011;35761;48.826;9.238;2023-02-01T04:35:25;3.28;;;2.35;;
49860;SDS011;35761;48.826;9.238;2023-02-01T04:37:53;4.65;;;2.53;;
49860;SDS011;35761;48.826;9.238;2023-02-01T04:40:22;6.65;;;2.53;;
49860;SDS011;35761;48.826;9.238;2023-02-01T04:42:52;3.65;;;2.25;;
49860;SDS011;35761;48.826;9.238;2023-02-01T04:45:21;4.72;;;2.30;;
49860;SDS011;35761;48.826;9.238;2023-02-01T04:47:50;4.55;;;2.30;;
49860;SDS011;35761;48.826;9.238;2023-02-01T04:50:18;6.25;;;2.45;;
49860;SDS011;35761;48.826;9.238;2023-02-01T04:52:47;4.43;;;2.30;;
49860;SDS011;35761;48.826;9.238;2023-02-01T04:55:16;5.80;;;2.78;;
49860;SDS011;35761;48.826;9.238;2023-02-01T04:57:45;4.05;;;2.13;;
49860;SDS011;35761;48.826;9.238;2023-02-01T05:00:16;4.10;;;2.30;;
49860;SDS011;35761;48.826;9.238;2023-02-01T05:02:45;4.15;;;2.60;;
49860;SDS011;35761;48.826;9.238;2023-02-01T05:05:13;3.38;;;2.10;;
49860;SDS011;35761;48.826;9.238;2023-02-01T05:07:42;4.28;;;2.20;;
49860;SDS011;35761;48.826;9.238;2023-02-01T05:10:11;4.10;;;2.05;;
49860;SDS011;35761;48.826;9.238;2023-02-01T05:12:39;3.80;;;2.20;;
49860;SDS011;35761;48.826;9.238;2023-02-01T05:15:28;2.83;;;1.90;;
49860;SDS011;35761;48.826;9.238;2023-02-01T05:17:57;4.93;;;2.30;;
49860;SDS011;35761;48.826;9.238;2023-02-01T05:20:26;3.72;;;2.08;;
49860;SDS011;35761;48.826;9.238;2023-02-01T05:22:55;5.40;;;2.33;;
49860;SDS011;35761;48.826;9.238;2023-02-01T05:25:23;3.65;;;1.90;;
49860;SDS011;35761;48.826;9.238;2023-02-01T05:27:53;3.92;;;2.17;;
49860;SDS011;35761;48.826;9.238;2023-02-01T05:30:21;2.20;;;1.63;;
49860;SDS011;35761;48.826;9.238;2023-02-01T05:32:52;3.28;;;2.05;;
49860;SDS011;35761;48.826;9.238;2023-02-01T05:35:20;3.60;;;1.88;;
49860;SDS011;35761;48.826;9.238;2023-02-01T05:37:49;2.90;;;1.90;;
49860;SDS011;35761;48.826;9.238;2023-02-01T05:40:18;3.67;;;1.95;;
49860;SDS011;35761;48.826;9.238;2023-02-01T05:42:47;2.85;;;1.77;;
49860;SDS011;35761;48.826;9.238;2023-02-01T05:45:16;3.22;;;2.10;;
49860;SDS011;35761;48.826;9.238;2023-02-01T05:47:45;4.03;;;2.20;;
49860;SDS011;35761;48.826;9.238;2023-02-01T05:50:15;3.15;;;2.13;;
49860;SDS011;35761;48.826;9.238;2023-02-01T05:52:44;6.68;;;2.10;;
49860;SDS011;35761;48.826;9.238;2023-02-01T05:55:13;3.13;;;2.05;;
49860;SDS011;35761;48.826;9.238;2023-02-01T05:57:42;5.07;;;2.10;;
49860;SDS011;35761;48.826;9.238;2023-02-01T06:00:11;7.38;;;3.75;;
49860;SDS011;35761;48.826;9.238;2023-02-01T06:02:41;13.23;;;6.53;;
49860;SDS011;35761;48.826;9.238;2023-02-01T06:05:10;4.22;;;2.20;;
49860;SDS011;35761;48.826;9.238;2023-02-01T06:07:40;4.38;;;2.03;;
49860;SDS011;35761;48.826;9.238;2023-02-01T06:10:09;5.22;;;1.90;;
49860;SDS011;35761;48.826;9.238;2023-02-01T06:12:38;3.97;;;1.83;;
49860;SDS011;35761;48.826;9.238;2023-02-01T06:15:07;2.45;;;1.58;;
49860;SDS011;35761;48.826;9.238;2023-02-01T06:17:36;3.03;;;1.85;;
49860;SDS011;35761;48.826;9.238;2023-02-01T06:20:06;5.05;;;2.20;;
49860;SDS011;35761;48.826;9.238;2023-02-01T06:22:37;3.58;;;2.08;;
49860;SDS011;35761;48.826;9.238;2023-02-01T06:25:08;4.95;;;1.90;;
49860;SDS011;35761;48.826;9.238;2023-02-01T06:27:37;3.75;;;2.40;;
49860;SDS011;35761;48.826;9.238;2023-02-01T06:30:06;5.85;;;1.98;;
49860;SDS011;35761;48.826;9.238;2023-02-01T06:32:36;3.75;;;2.55;;
49860;SDS011;35761;48.826;9.238;2023-02-01T06:35:06;2.72;;;1.67;;
49860;SDS011;35761;48.826;9.238;2023-02-01T06:37:37;5.50;;;2.00;;
49860;SDS011;35761;48.826;9.238;2023-02-01T06:40:08;3.40;;;1.92;;
49860;SDS011;35761;48.826;9.238;2023-02-01T06:42:37;2.75;;;1.60;;
49860;SDS011;35761;48.826;9.238;2023-02-01T06:45:06;2.88;;;1.85;;
49860;SDS011;35761;48.826;9.238;2023-02-01T06:47:35;4.03;;;1.80;;
49860;SDS011;35761;48.826;9.238;2023-02-01T06:50:05;3.60;;;1.90;;
49860;SDS011;35761;48.826;9.238;2023-02-01T06:52:35;4.05;;;1.90;;
49860;SDS011;35761;48.826;9.238;2023-02-01T06:55:05;5.00;;;1.98;;
49860;SDS011;35761;48.826;9.238;2023-02-01T06:57:34;4.82;;;2.10;;
49860;SDS011;35761;48.826;9.238;2023-02-01T07:00:04;4.95;;;1.98;;
49860;SDS011;35761;48.826;9.238;2023-02-01T07:02:33;4.70;;;1.70;;
49860;SDS011;35761;48.826;9.238;2023-02-01T07:05:02;5.40;;;2.05;;
49860;SDS011;35761;48.826;9.238;2023-02-01T07:07:31;5.75;;;2.00;;
49860;SDS011;35761;48.826;9.238;2023-02-01T07:09:59;10.10;;;2.05;;
49860;SDS011;35761;48.826;9.238;2023-02-01T07:12:29;5.65;;;2.00;;
49860;SDS011;35761;48.826;9.238;2023-02-01T07:14:58;5.68;;;2.03;;
49860;SDS011;35761;48.826;9.238;2023-02-01T07:17:28;6.38;;;2.38;;
49860;SDS011;35761;48.826;9.238;2023-02-01T07:19:56;7.80;;;2.33;;
49860;SDS011;35761;48.826;9.238;2023-02-01T07:22:26;6.85;;;2.10;;
49860;SDS011;35761;48.826;9.238;2023-02-01T07:24:55;6.03;;;2.33;;
49860;SDS011;35761;48.826;9.238;2023-02-01T07:27:24;6.78;;;2.10;;
49860;SDS011;35761;48.826;9.238;2023-02-01T07:29:54;6.18;;;2.20;;
49860;SDS011;35761;48.826;9.238;2023-02-01T07:32:23;10.68;;;2.70;;
49860;SDS011;35761;48.826;9.238;2023-02-01T07:34:51;8.02;;;2.67;;
49860;SDS011;35761;48.826;9.238;2023-02-01T07:37:20;6.70;;;2.60;;
49860;SDS011;35761;48.826;9.238;2023-02-01T07:39:50;11.48;;;2.67;;
49860;SDS011;35761;48.826;9.238;2023-02-01T07:42:19;16.70;;;2.90;;
49860;SDS011;35761;48.826;9.238;2023-02-01T07:44:48;7.47;;;2.90;;
49860;SDS011;35761;48.826;9.238;2023-02-01T07:47:17;9.75;;;3.40;;
49860;SDS011;35761;48.826;9.238;2023-02-01T07:49:46;8.60;;;2.88;;
49860;SDS011;35761;48.826;9.238;2023-02-01T07:52:15;10.95;;;2.80;;
49860;SDS011;35761;48.826;9.238;2023-02-01T07:54:44;18.48;;;7.10;;
49860;SDS011;35761;48.826;9.238;2023-02-01T07:57:12;7.57;;;2.78;;
49860;SDS011;35761;48.826;9.238;2023-02-01T07:59:41;6.80;;;2.25;;
49860;SDS011;35761;48.826;9.238;2023-02-01T08:02:25;13.88;;;2.80;;
49860;SDS011;35761;48.826;9.238;2023-02-01T08:04:54;8.80;;;3.08;;
49860;SDS011;35761;48.826;9.238;2023-02-01T08:07:23;10.13;;;3.03;;
49860;SDS011;35761;48.826;9.238;2023-02-01T08:09:52;17.00;;;3.10;;
49860;SDS011;35761;48.826;9.238;2023-02-01T08:12:20;12.13;;;3.25;;
49860;SDS011;35761;48.826;9.238;2023-02-01T08:14:51;12.05;;;2.75;;
49860;SDS011;35761;48.826;9.238;2023-02-01T08:17:20;13.55;;;2.97;;
49860;SDS011;35761;48.826;9.238;2023-02-01T08:19:50;6.70;;;2.08;;
49860;SDS011;35761;48.826;9.238;2023-02-01T08:22:19;11.27;;;2.67;;
49860;SDS011;35761;48.826;9.238;2023-02-01T08:24:47;10.57;;;2.95;;
49860;SDS011;35761;48.826;9.238;2023-02-01T08:27:16;12.63;;;2.88;;
49860;SDS011;35761;48.826;9.238;2023-02-01T08:29:45;7.93;;;2.47;;
49860;SDS011;35761;48.826;9.238;2023-02-01T08:32:14;10.30;;;3.28;;
49860;SDS011;35761;48.826;9.238;2023-02-01T08:34:42;12.43;;;2.97;;
49860;SDS011;35761;48.826;9.238;2023-02-01T08:37:12;15.20;;;3.22;;
49860;SDS011;35761;48.826;9.238;2023-02-01T08:39:41;11.57;;;2.92;;
49860;SDS011;35761;48.826;9.238;2023-02-01T08:42:13;18.15;;;2.75;;
49860;SDS011;35761;48.826;9.238;2023-02-01T08:45:10;8.05;;;2.65;;
49860;SDS011;35761;48.826;9.238;2023-02-01T08:47:40;9.20;;;2.50;;
49860;SDS011;35761;48.826;9.238;2023-02-01T08:50:09;9.00;;;2.90;;
49860;SDS011;35761;48.826;9.238;2023-02-01T08:52:39;8.50;;;2.92;;
49860;SDS011;35761;48.826;9.238;2023-02-01T08:55:08;8.18;;;2.33;;
49860;SDS011;35761;48.826;9.238;2023-02-01T08:57:37;11.18;;;2.95;;
49860;SDS011;35761;48.826;9.238;2023-02-01T09:00:06;12.15;;;3.33;;
49860;SDS011;35761;48.826;9.238;2023-02-01T09:02:37;10.18;;;3.25;;
49860;SDS011;35761;48.826;9.238;2023-02-01T09:05:06;14.25;;;2.88;;
49860;SDS011;35761;48.826;9.238;2023-02-01T09:07:35;8.98;;;2.38;;
49860;SDS011;35761;48.826;9.238;2023-02-01T09:10:05;14.65;;;3.63;;
49860;SDS011;35761;48.826;9.238;2023-02-01T09:12:35;16.48;;;3.10;;
49860;SDS011;35761;48.826;9.238;2023-02-01T09:15:04;18.95;;;3.38;;
49860;SDS011;35761;48.826;9.238;2023-02-01T09:17:34;19.20;;;3.10;;
49860;SDS011;35761;48.826;9.238;2023-02-01T09:20:03;15.32;;;2.90;;
49860;SDS011;35761;48.826;9.238;2023-02-01T09:22:32;15.88;;;2.83;;
49860;SDS011;35761;48.826;9.238;2023-02-01T09:25:01;10.73;;;2.88;;
49860;SDS011;35761;48.826;9.238;2023-02-01T09:27:31;13.50;;;3.22;;
49860;SDS011;35761;48.826;9.238;2023-02-01T09:30:00;19.45;;;3.20;;
49860;SDS011;35761;48.826;9.238;2023-02-01T09:32:29;12.27;;;3.13;;
49860;SDS011;35761;48.826;9.238;2023-02-01T09:34:57;13.70;;;2.78;;
49860;SDS011;35761;48.826;9.238;2023-02-01T09:37:26;15.18;;;4.45;;
49860;SDS011;35761;48.826;9.238;2023-02-01T09:39:55;15.10;;;2.90;;
49860;SDS011;35761;48.826;9.238;2023-02-01T09:42:28;20.88;;;3.58;;
49860;SDS011;35761;48.826;9.238;2023-02-01T09:45:20;16.08;;;3.47;;
49860;SDS011;35761;48.826;9.238;2023-02-01T09:47:53;12.95;;;2.97;;
49860;SDS011;35761;48.826;9.238;2023-02-01T09:50:27;17.50;;;2.78;;
49860;SDS011;35761;48.826;9.238;2023-02-01T09:52:59;19.80;;;3.33;;
49860;SDS011;35761;48.826;9.238;2023-02-01T09:55:32;15.25;;;3.78;;
49860;SDS011;35761;48.826;9.238;2023-02-01T09:58:07;10.98;;;2.95;;
49860;SDS011;35761;48.826;9.238;2023-02-01T10:00:49;18.92;;;3.97;;
49860;SDS011;35761;48.826;9.238;2023-02-01T10:03:19;19.70;;;3.17;;
49860;SDS011;35761;48.826;9.238;2023-02-01T10:05:55;18.13;;;3.03;;
49860;SDS011;35761;48.826;9.238;2023-02-01T10:08:33;14.95;;;3.03;;
49860;SDS011;35761;48.826;9.238;2023-02-01T10:11:18;9.75;;;2.78;;
49860;SDS011;35761;48.826;9.238;2023-02-01T10:13:57;11.75;;;3.03;;
49860;SDS011;35761;48.826;9.238;2023-02-01T10:16:33;14.35;;;3.20;;
49860;SDS011;35761;48.826;9.238;2023-02-01T10:19:13;11.90;;;3.10;;
49860;SDS011;35761;48.826;9.238;2023-02-01T10:21:54;13.55;;;3.13;;
49860;SDS011;35761;48.826;9.238;2023-02-01T10:24:28;15.60;;;3.05;;
49860;SDS011;35761;48.826;9.238;2023-02-01T10:27:10;16.75;;;2.60;;
49860;SDS011;35761;48.826;9.238;2023-02-01T10:29:43;17.90;;;3.33;;
49860;SDS011;35761;48.826;9.238;2023-02-01T10:32:15;21.00;;;3.30;;
49860;SDS011;35761;48.826;9.238;2023-02-01T10:34:46;17.33;;;3.00;;
49860;SDS011;35761;48.826;9.238;2023-02-01T10:37:20;16.35;;;3.20;;
49860;SDS011;35761;48.826;9.238;2023-02-01T10:42:23;12.98;;;2.88;;
49860;SDS011;35761;48.826;9.238;2023-02-01T10:44:55;13.93;;;3.10;;
49860;SDS011;35761;48.826;9.238;2023-02-01T10:47:25;14.13;;;3.28;;
49860;SDS011;35761;48.826;9.238;2023-02-01T10:49:58;18.55;;;5.20;;
49860;SDS011;35761;48.826;9.238;2023-02-01T10:52:35;19.88;;;3.42;;
49860;SDS011;35761;48.826;9.238;2023-02-01T10:55:27;14.98;;;2.88;;
49860;SDS011;35761;48.826;9.238;2023-02-01T10:57:59;17.27;;;4.10;;
49860;SDS011;35761;48.826;9.238;2023-02-01T11:00:33;17.45;;;3.17;;
49860;SDS011;35761;48.826;9.238;2023-02-01T11:03:28;9.77;;;2.38;;
49860;SDS011;35761;48.826;9.238;2023-02-01T11:06:03;15.90;;;3.10;;
49860;SDS011;35761;48.826;9.238;2023-02-01T11:08:41;23.65;;;4.55;;
49860;SDS011;35761;48.826;9.238;2023-02-01T11:11:11;10.57;;;1.90;;
49860;SDS011;35761;48.826;9.238;2023-02-01T11:13:40;16.05;;;2.88;;
49860;SDS011;35761;48.826;9.238;2023-02-01T11:16:12;9.45;;;2.45;;
49860;SDS011;35761;48.826;9.238;2023-02-01T11:18:42;18.55;;;3.45;;
49860;SDS011;35761;48.826;9.238;2023-02-01T11:21:10;23.38;;;3.55;;
49860;SDS011;35761;48.826;9.238;2023-02-01T11:23:40;13.98;;;2.95;;
49860;SDS011;35761;48.826;9.238;2023-02-01T11:26:11;19.15;;;3.10;;
49860;SDS011;35761;48.826;9.238;2023-02-01T11:28:44;14.40;;;2.88;;
49860;SDS011;35761;48.826;9.238;2023-02-01T11:31:20;21.00;;;2.60;;
49860;SDS011;35761;48.826;9.238;2023-02-01T11:33:50;15.30;;;3.30;;
49860;SDS011;35761;48.826;9.238;2023-02-01T11:36:21;19.23;;;3.42;;
49860;SDS011;35761;48.826;9.238;2023-02-01T11:38:54;14.80;;;2.67;;
49860;SDS011;35761;48.826;9.238;2023-02-01T11:41:40;21.67;;;3.00;;
49860;SDS011;35761;48.826;9.238;2023-02-01T11:44:18;14.70;;;2.83;;
49860;SDS011;35761;48.826;9.238;2023-02-01T11:46:50;14.90;;;3.40;;
49860;SDS011;35761;48.826;9.238;2023-02-01T11:49:20;16.83;;;2.92;;
49860;SDS011;35761;48.826;9.238;2023-02-01T11:52:03;16.67;;;2.80;;
49860;SDS011;35761;48.826;9.238;2023-02-01T11:54:45;17.90;;;2.75;;
49860;SDS011;35761;48.826;9.238;2023-02-01T11:57:30;10.63;;;2.35;;
49860;SDS011;35761;48.826;9.238;2023-02-01T12:00:13;19.33;;;3.20;;
49860;SDS011;35761;48.826;9.238;2023-02-01T12:06:06;15.88;;;2.60;;
49860;SDS011;35761;48.826;9.238;2023-02-01T12:08:48;10.13;;;2.80;;
49860;SDS011;35761;48.826;9.238;2023-02-01T12:11:34;14.90;;;2.72;;
49860;SDS011;35761;48.826;9.238;2023-02-01T12:14:35;15.90;;;3.55;;
49860;SDS011;35761;48.826;9.238;2023-02-01T12:17:15;20.80;;;3.08;;
49860;SDS011;35761;48.826;9.238;2023-02-01T12:20:09;11.93;;;2.55;;
49860;SDS011;35761;48.826;9.238;2023-02-01T12:22:55;11.98;;;2.83;;
49860;SDS011;35761;48.826;9.238;2023-02-01T12:25:38;12.00;;;2.42;;
49860;SDS011;35761;48.826;9.238;2023-02-01T12:28:16;16.02;;;3.13;;
49860;SDS011;35761;48.826;9.238;2023-02-01T12:31:05;13.82;;;2.55;;
49860;SDS011;35761;48.826;9.238;2023-02-01T12:33:47;16.33;;;3.17;;
49860;SDS011;35761;48.826;9.238;2023-02-01T12:36:24;13.70;;;2.40;;
49860;SDS011;35761;48.826;9.238;2023-02-01T12:39:00;15.02;;;3.45;;
49860;SDS011;35761;48.826;9.238;2023-02-01T12:41:47;16.58;;;3.28;;
49860;SDS011;35761;48.826;9.238;2023-02-01T12:44:24;14.82;;;3.35;;
49860;SDS011;35761;48.826;9.238;2023-02-01T12:47:04;13.93;;;2.85;;
49860;SDS011;35761;48.826;9.238;2023-02-01T12:49:38;23.55;;;3.38;;
49860;SDS011;35761;48.826;9.238;2023-02-01T12:52:15;7.65;;;2.45;;
49860;SDS011;35761;48.826;9.238;2023-02-01T12:54:48;10.55;;;2.22;;
49860;SDS011;35761;48.826;9.238;2023-02-01T12:59:53;13.82;;;2.72;;
49860;SDS011;35761;48.826;9.238;2023-02-01T13:02:25;19.00;;;3.10;;
49860;SDS011;35761;48.826;9.238;2023-02-01T13:07:30;14.35;;;2.90;;
49860;SDS011;35761;48.826;9.238;2023-02-01T13:10:05;12.63;;;3.58;;
49860;SDS011;35761;48.826;9.238;2023-02-01T13:12:40;14.32;;;2.75;;
49860;SDS011;35761;48.826;9.238;2023-02-01T13:15:13;15.65;;;3.22;;
49860;SDS011;35761;48.826;9.238;2023-02-01T13:17:44;11.93;;;2.80;;
49860;SDS011;35761;48.826;9.238;2023-02-01T13:20:17;17.20;;;3.38;;
49860;SDS011;35761;48.826;9.238;2023-02-01T13:22:50;16.45;;;4.20;;
49860;SDS011;35761;48.826;9.238;2023-02-01T13:25:26;18.65;;;3.20;;
49860;SDS011;35761;48.826;9.238;2023-02-01T13:28:00;20.67;;;3.95;;
49860;SDS011;35761;48.826;9.238;2023-02-01T13:30:36;15.80;;;3.22;;
49860;SDS011;35761;48.826;9.238;2023-02-01T13:33:24;14.05;;;2.90;;
49860;SDS011;35761;48.826;9.238;2023-02-01T13:36:30;14.60;;;3.40;;
49860;SDS011;35761;48.826;9.238;2023-02-01T13:42:15;11.05;;;2.35;;
49860;SDS011;35761;48.826;9.238;2023-02-01T13:44:47;17.88;;;2.80;;
49860;SDS011;35761;48.826;9.238;2023-02-01T13:47:24;16.08;;;3.30;;
49860;SDS011;35761;48.826;9.238;2023-02-01T13:49:56;16.15;;;2.33;;
49860;SDS011;35761;48.826;9.238;2023-02-01T13:52:36;13.23;;;3.15;;
49860;SDS011;35761;48.826;9.238;2023-02-01T13:58:05;14.80;;;2.60;;
49860;SDS011;35761;48.826;9.238;2023-02-01T14:00:41;18.67;;;3.25;;
49860;SDS011;35761;48.826;9.238;2023-02-01T14:03:15;12.73;;;2.50;;
49860;SDS011;35761;48.826;9.238;2023-02-01T14:05:58;9.38;;;2.85;;
49860;SDS011;35761;48.826;9.238;2023-02-01T14:08:38;14.95;;;2.92;;
49860;SDS011;35761;48.826;9.238;2023-02-01T14:23:26;16.58;;;4.40;;
49860;SDS011;35761;48.826;9.238;2023-02-01T14:26:15;13.95;;;2.42;;
49860;SDS011;35761;48.826;9.238;2023-02-01T14:28:50;14.45;;;3.30;;
49860;SDS011;35761;48.826;9.238;2023-02-01T14:31:35;14.15;;;3.10;;
49860;SDS011;35761;48.826;9.238;2023-02-01T14:34:29;14.07;;;3.20;;
49860;SDS011;35761;48.826;9.238;2023-02-01T14:37:02;9.65;;;2.38;;
49860;SDS011;35761;48.826;9.238;2023-02-01T14:39:36;15.13;;;2.92;;
49860;SDS011;35761;48.826;9.238;2023-02-01T14:42:22;11.93;;;2.63;;
49860;SDS011;35761;48.826;9.238;2023-02-01T14:44:53;14.88;;;3.60;;
49860;SDS011;35761;48.826;9.238;2023-02-01T14:50:07;19.13;;;2.75;;
49860;SDS011;35761;48.826;9.238;2023-02-01T14:52:41;20.27;;;3.60;;
49860;SDS011;35761;48.826;9.238;2023-02-01T14:55:15;13.05;;;2.67;;
49860;SDS011;35761;48.826;9.238;2023-02-01T14:57:46;11.27;;;2.47;;
49860;SDS011;35761;48.826;9.238;2023-02-01T15:00:20;22.65;;;3.08;;
49860;SDS011;35761;48.826;9.238;2023-02-01T15:02:51;12.07;;;3.22;;
49860;SDS011;35761;48.826;9.238;2023-02-01T15:05:29;8.65;;;2.92;;
49860;SDS011;35761;48.826;9.238;2023-02-01T15:08:03;14.85;;;3.20;;
49860;SDS011;35761;48.826;9.238;2023-02-01T15:10:40;17.55;;;3.53;;
49860;SDS011;35761;48.826;9.238;2023-02-01T15:13:21;15.38;;;4.43;;
49860;SDS011;35761;48.826;9.238;2023-02-01T15:16:01;12.05;;;2.63;;
49860;SDS011;35761;48.826;9.238;2023-02-01T15:18:31;11.20;;;4.20;;
49860;SDS011;35761;48.826;9.238;2023-02-01T15:21:02;20.77;;;3.80;;
49860;SDS011;35761;48.826;9.238;2023-02-01T15:24:07;11.98;;;2.75;;
49860;SDS011;35761;48.826;9.238;2023-02-01T15:26:38;19.33;;;4.53;;
49860;SDS011;35761;48.826;9.238;2023-02-01T15:29:11;13.45;;;2.55;;
49860;SDS011;35761;48.826;9.238;2023-02-01T15:31:41;19.13;;;3.40;;
49860;SDS011;35761;48.826;9.238;2023-02-01T15:34:11;12.80;;;2.50;;
49860;SDS011;35761;48.826;9.238;2023-02-01T15:36:42;19.23;;;3.55;;
49860;SDS011;35761;48.826;9.238;2023-02-01T15:39:27;9.70;;;2.60;;
49860;SDS011;35761;48.826;9.238;2023-02-01T15:41:58;11.18;;;2.50;;
49860;SDS011;35761;48.826;9.238;2023-02-01T15:44:30;17.20;;;2.95;;
49860;SDS011;35761;48.826;9.238;2023-02-01T15:47:05;16.67;;;3.35;;
49860;SDS011;35761;48.826;9.238;2023-02-01T15:49:37;13.75;;;3.35;;
49860;SDS011;35761;48.826;9.238;2023-02-01T15:52:14;16.80;;;2.83;;
49860;SDS011;35761;48.826;9.238;2023-02-01T15:54:50;14.73;;;2.85;;
49860;SDS011;35761;48.826;9.238;2023-02-01T15:57:20;14.60;;;2.38;;
49860;SDS011;35761;48.826;9.238;2023-02-01T15:59:56;12.95;;;3.33;;